Time;durP1;ratioP1;P1;durP2;ratioP2;P2;SDS_P1;SDS_P2;PMS_P1;PMS_P2;Temp;Humidity;BMP_temperature;BMP_pressure;BME280_temperature;BME280_humidity;BME280_pressure;Samples;Min_cycle;Max_cycle;Signal;HPM_P1;HPM_P2
2022/06/01 00:00:29;;;;;;;8.38;5.13;;;;;;;;;;6186302;23;20055;-80
2022/06/01 00:02:55;;;;;;;6.13;4.35;;;;;;;;;;6186109;23;20473;-80
2022/06/01 00:05:22;;;;;;;5.85;4.50;;;;;;;;;;6186323;23;20424;-80
2022/06/01 00:07:48;;;;;;;6.63;4.80;;;;;;;;;;6159451;23;20008;-79
2022/06/01 00:10:14;;;;;;;6.70;4.28;;;;;;;;;;6186212;23;20068;-80
2022/06/01 00:12:40;;;;;;;7.40;5.00;;;;;;;;;;6186012;23;20306;-80
2022/06/01 00:15:07;;;;;;;15.45;5.45;;;;;;;;;;6186167;23;20013;-79
2022/06/01 00:17:34;;;;;;;8.30;4.95;;;;;;;;;;6186124;23;20028;-80
2022/06/01 00:20:00;;;;;;;7.90;5.38;;;;;;;;;;6161237;23;20006;-80
2022/06/01 00:22:26;;;;;;;8.65;5.38;;;;;;;;;;6186032;23;20421;-80
2022/06/01 00:24:52;;;;;;;7.07;5.28;;;;;;;;;;6186087;23;19997;-80
2022/06/01 00:27:18;;;;;;;7.57;4.95;;;;;;;;;;6186099;23;20009;-80
2022/06/01 00:29:45;;;;;;;8.32;5.05;;;;;;;;;;6185643;23;20421;-79
2022/06/01 00:32:12;;;;;;;7.68;4.72;;;;;;;;;;6185974;23;20063;-80
2022/06/01 00:34:39;;;;;;;6.25;4.00;;;;;;;;;;6185898;23;20493;-80
2022/06/01 00:37:05;;;;;;;9.30;4.30;;;;;;;;;;6159545;23;20080;-80
2022/06/01 00:39:31;;;;;;;7.78;4.40;;;;;;;;;;6160000;23;20338;-80
2022/06/01 00:42:15;;;;;;;7.43;4.55;;;;;;;;;;6185741;23;20071;-80
2022/06/01 00:44:41;;;;;;;8.75;3.72;;;;;;;;;;6185721;23;20005;-80
2022/06/01 00:47:08;;;;;;;5.25;4.03;;;;;;;;;;6185942;23;20005;-79
2022/06/01 00:49:35;;;;;;;9.65;5.00;;;;;;;;;;6185908;23;20005;-80
2022/06/01 00:52:01;;;;;;;7.82;4.10;;;;;;;;;;6185254;23;20009;-79
2022/06/01 00:54:28;;;;;;;7.43;3.47;;;;;;;;;;6185810;23;20072;-79
2022/06/01 00:56:57;;;;;;;6.10;3.90;;;;;;;;;;6185442;23;20556;-81
2022/06/01 00:59:25;;;;;;;8.77;4.63;;;;;;;;;;6186044;23;20529;-82
2022/06/01 01:01:55;;;;;;;6.93;4.53;;;;;;;;;;6185765;23;20001;-82
2022/06/01 01:04:22;;;;;;;10.05;5.05;;;;;;;;;;6159932;23;20344;-81
2022/06/01 01:06:48;;;;;;;5.43;4.00;;;;;;;;;;6186169;23;20019;-82
2022/06/01 01:09:14;;;;;;;5.43;4.18;;;;;;;;;;6185624;23;20417;-80
2022/06/01 01:11:40;;;;;;;6.20;3.75;;;;;;;;;;6185466;23;20343;-79
2022/06/01 01:14:07;;;;;;;5.53;3.22;;;;;;;;;;6185571;23;20097;-80
2022/06/01 01:16:34;;;;;;;7.15;4.25;;;;;;;;;;6159013;23;20091;-81
2022/06/01 01:19:01;;;;;;;6.40;2.83;;;;;;;;;;6185621;23;20486;-81
2022/06/01 01:21:33;;;;;;;8.43;4.25;;;;;;;;;;6185453;23;20337;-80
2022/06/01 01:24:09;;;;;;;7.53;4.50;;;;;;;;;;6185539;23;20009;-80
2022/06/01 01:26:36;;;;;;;5.03;4.40;;;;;;;;;;6185200;23;20433;-79
2022/06/01 01:29:09;;;;;;;8.13;4.60;;;;;;;;;;6186205;23;20068;-80
2022/06/01 01:31:35;;;;;;;6.40;5.03;;;;;;;;;;6185605;23;20052;-80
2022/06/01 01:34:01;;;;;;;32.22;25.88;;;;;;;;;;6185446;23;20414;-80
2022/06/01 01:36:30;;;;;;;42.17;35.58;;;;;;;;;;6185222;23;20001;-80
2022/06/01 01:39:03;;;;;;;10.02;6.85;;;;;;;;;;6185286;23;20322;-81
2022/06/01 01:41:29;;;;;;;7.03;4.72;;;;;;;;;;6185233;23;20005;-81
2022/06/01 01:44:13;;;;;;;5.95;3.60;;;;;;;;;;6185419;23;20008;-80
2022/06/01 01:46:43;;;;;;;6.40;3.92;;;;;;;;;;6185386;23;20000;-80
2022/06/01 01:49:09;;;;;;;6.47;4.05;;;;;;;;;;6185019;23;20439;-81
2022/06/01 01:51:35;;;;;;;6.55;4.00;;;;;;;;;;6185551;23;20009;-81
2022/06/01 01:54:01;;;;;;;9.13;4.47;;;;;;;;;;6185414;23;20005;-80
2022/06/01 01:56:30;;;;;;;6.70;4.25;;;;;;;;;;6185198;23;20017;-80
2022/06/01 01:59:02;;;;;;;7.10;4.25;;;;;;;;;;6185099;23;20024;-80
2022/06/01 02:01:33;;;;;;;8.43;4.55;;;;;;;;;;6185311;23;20076;-81
2022/06/01 02:06:03;;;;;;;6.85;4.18;;;;;;;;;;6184791;23;20048;-80
2022/06/01 02:06:54;;;;;;;;;;;;;;;;;;6185481;23;20395;-80
2022/06/01 02:09:21;;;;;;;8.93;4.28;;;;;;;;;;6185022;23;19932;-80
2022/06/01 02:14:40;;;;;;;6.28;4.30;;;;;;;;;;6184765;23;20012;-80
2022/06/01 02:17:24;;;;;;;7.10;3.75;;;;;;;;;;6184760;23;20001;-80
2022/06/01 02:19:53;;;;;;;6.88;3.85;;;;;;;;;;6184848;23;20001;-80
2022/06/01 02:22:19;;;;;;;4.70;3.67;;;;;;;;;;6185007;23;20004;-81
2022/06/01 02:24:46;;;;;;;6.90;3.95;;;;;;;;;;6185268;23;20009;-80
2022/06/01 02:27:13;;;;;;;7.32;4.95;;;;;;;;;;6158184;23;20444;-80
2022/06/01 02:29:42;;;;;;;8.50;4.80;;;;;;;;;;6184983;23;20032;-80
2022/06/01 02:32:09;;;;;;;6.22;4.03;;;;;;;;;;6184682;23;20072;-80
2022/06/01 02:34:37;;;;;;;7.03;4.60;;;;;;;;;;6158833;23;20002;-80
2022/06/01 02:37:05;;;;;;;11.43;6.90;;;;;;;;;;6184733;23;20008;-81
2022/06/01 02:39:32;;;;;;;6.50;4.07;;;;;;;;;;6184915;23;20388;-80
2022/06/01 02:45:08;;;;;;;5.13;4.10;;;;;;;;;;6185032;23;20020;-81
2022/06/01 02:47:38;;;;;;;8.52;4.28;;;;;;;;;;6184701;23;20004;-81
2022/06/01 02:50:06;;;;;;;7.50;4.93;;;;;;;;;;6184741;23;20088;-80
2022/06/01 02:52:32;;;;;;;7.82;5.30;;;;;;;;;;6184634;23;20005;-81
2022/06/01 02:54:58;;;;;;;10.02;7.40;;;;;;;;;;6184821;23;20530;-80
2022/06/01 02:57:24;;;;;;;15.48;8.38;;;;;;;;;;6184339;23;20020;-81
2022/06/01 02:59:52;;;;;;;7.65;4.75;;;;;;;;;;6184892;23;20017;-80
2022/06/01 03:02:18;;;;;;;9.05;4.40;;;;;;;;;;6159375;23;20056;-80
2022/06/01 03:04:45;;;;;;;8.68;4.50;;;;;;;;;;6184789;23;20001;-81
2022/06/01 03:07:11;;;;;;;10.35;5.28;;;;;;;;;;6184696;23;19997;-80
2022/06/01 03:09:37;;;;;;;7.55;4.30;;;;;;;;;;6184410;23;20314;-80
2022/06/01 03:12:05;;;;;;;8.15;4.47;;;;;;;;;;6184801;23;20025;-80
2022/06/01 03:14:31;;;;;;;10.98;4.93;;;;;;;;;;6184574;23;20005;-80
2022/06/01 03:16:57;;;;;;;6.28;3.97;;;;;;;;;;6186834;23;20024;-81
2022/06/01 03:19:24;;;;;;;7.72;4.03;;;;;;;;;;6160427;23;20335;-80
2022/06/01 03:21:50;;;;;;;9.82;5.75;;;;;;;;;;6186836;23;20001;-81
2022/06/01 03:24:16;;;;;;;9.65;4.95;;;;;;;;;;6186857;23;20533;-81
2022/06/01 03:26:43;;;;;;;35.78;28.05;;;;;;;;;;6186440;23;20013;-80
2022/06/01 03:29:09;;;;;;;6.53;5.18;;;;;;;;;;6186551;23;20003;-81
2022/06/01 03:31:35;;;;;;;7.20;5.03;;;;;;;;;;6186401;23;19997;-80
2022/06/01 03:34:02;;;;;;;10.82;8.80;;;;;;;;;;6186653;23;20001;-80
2022/06/01 03:36:28;;;;;;;10.90;6.55;;;;;;;;;;6186497;23;20433;-80
2022/06/01 03:38:54;;;;;;;12.15;7.63;;;;;;;;;;6186637;23;20076;-81
2022/06/01 03:41:20;;;;;;;9.38;5.32;;;;;;;;;;6160050;23;20008;-80
2022/06/01 03:46:31;;;;;;;;;;;;;;;;;;6186879;23;20019;-81
2022/06/01 03:48:57;;;;;;;17.58;10.07;;;;;;;;;;6186382;23;19911;-81
2022/06/01 03:51:26;;;;;;;12.57;9.55;;;;;;;;;;6186379;23;20005;-81
2022/06/01 03:53:52;;;;;;;10.23;5.82;;;;;;;;;;6159842;23;20005;-81
2022/06/01 03:56:18;;;;;;;10.98;5.63;;;;;;;;;;6185869;23;20024;-80
2022/06/01 03:58:44;;;;;;;7.50;4.25;;;;;;;;;;6186350;23;20004;-81
2022/06/01 04:01:14;;;;;;;8.68;5.90;;;;;;;;;;6160435;23;20387;-81
2022/06/01 04:03:40;;;;;;;8.90;5.38;;;;;;;;;;6186141;23;19997;-81
2022/06/01 04:06:06;;;;;;;8.18;4.95;;;;;;;;;;6159634;23;20376;-81
2022/06/01 04:08:41;;;;;;;8.45;5.30;;;;;;;;;;6160030;23;20009;-85
2022/06/01 04:14:06;;;;;;;6.18;4.55;;;;;;;;;;6187319;23;20016;-86
2022/06/01 04:16:35;;;;;;;8.13;4.75;;;;;;;;;;6162384;23;20001;-87
2022/06/01 04:22:01;;;;;;;8.60;4.97;;;;;;;;;;6178533;23;20012;-85
2022/06/01 04:25:02;;;;;;;7.85;5.03;;;;;;;;;;6187099;23;20012;-85
2022/06/01 04:27:28;;;;;;;6.63;4.82;;;;;;;;;;6159839;23;20344;-86
2022/06/01 04:30:09;;;;;;;8.00;4.80;;;;;;;;;;6187108;23;20005;-84
2022/06/01 04:32:38;;;;;;;8.40;5.93;;;;;;;;;;6161700;23;20005;-84
2022/06/01 04:35:05;;;;;;;8.00;5.15;;;;;;;;;;6162041;23;19997;-89
2022/06/01 04:37:39;;;;;;;9.32;6.68;;;;;;;;;;6161827;23;20483;-86
2022/06/01 04:40:08;;;;;;;11.20;6.17;;;;;;;;;;6160328;23;20463;-88
2022/06/01 04:43:00;;;;;;;9.38;6.03;;;;;;;;;;6162012;23;20436;-86
2022/06/01 04:48:38;;;;;;;8.25;4.93;;;;;;;;;;6169858;23;20005;-86
2022/06/01 04:51:21;;;;;;;;;;;;;;;;;;;;;
2022/06/01 04:53:57;;;;;;;7.10;5.05;;;;;;;;;;6163714;23;20489;-86
2022/06/01 04:56:26;;;;;;;6.95;5.35;;;;;;;;;;6160344;23;20028;-85
2022/06/01 04:58:52;;;;;;;10.75;5.68;;;;;;;;;;6160228;23;20056;-87
2022/06/01 05:01:21;;;;;;;13.32;6.18;;;;;;;;;;6186786;23;20009;-87
2022/06/01 05:03:50;;;;;;;7.72;5.90;;;;;;;;;;6159878;23;20028;-85
2022/06/01 05:06:32;;;;;;;11.25;7.55;;;;;;;;;;6160021;23;20080;-86
2022/06/01 05:09:27;;;;;;;9.75;6.47;;;;;;;;;;6162381;23;20017;-88
2022/06/01 05:18:03;;;;;;;10.07;5.40;;;;;;;;;;6050047;23;20008;-80
2022/06/01 05:20:49;;;;;;;;;;;;;;;;;;;;;
2022/06/01 05:23:38;;;;;;;10.75;5.30;;;;;;;;;;6095199;23;20074;-85
2022/06/01 05:26:51;;;;;;;8.25;5.50;;;;;;;;;;6092808;23;20003;-86
2022/06/01 05:35:37;;;;;;;7.35;4.30;;;;;;;;;;6166127;23;20043;-82
2022/06/01 05:44:43;;;;;;;7.95;5.03;;;;;;;;;;6063907;23;20015;-84
2022/06/01 05:47:17;;;;;;;7.72;4.55;;;;;;;;;;6061717;23;20519;-83
2022/06/01 05:49:43;;;;;;;7.50;4.20;;;;;;;;;;6064381;23;20023;-81
2022/06/01 05:52:10;;;;;;;6.43;4.00;;;;;;;;;;6112214;23;20025;-81
2022/06/01 05:54:36;;;;;;;9.48;4.68;;;;;;;;;;6185275;23;20012;-84
2022/06/01 05:57:04;;;;;;;6.13;3.95;;;;;;;;;;6157196;23;20112;-81
2022/06/01 05:59:30;;;;;;;6.30;4.45;;;;;;;;;;6184892;23;20001;-85
2022/06/01 06:01:57;;;;;;;10.00;6.47;;;;;;;;;;6184798;23;20432;-83
2022/06/01 06:04:23;;;;;;;14.00;12.55;;;;;;;;;;6183029;23;20029;-82
2022/06/01 06:06:49;;;;;;;10.30;6.20;;;;;;;;;;6183687;23;20001;-82
2022/06/01 06:09:15;;;;;;;9.10;6.55;;;;;;;;;;6184712;23;20002;-80
2022/06/01 06:11:41;;;;;;;8.27;4.93;;;;;;;;;;6183731;23;20024;-83
2022/06/01 06:14:08;;;;;;;6.32;3.95;;;;;;;;;;6184475;23;20004;-81
2022/06/01 06:16:42;;;;;;;9.10;5.05;;;;;;;;;;6184701;23;20463;-85
2022/06/01 06:19:09;;;;;;;8.05;4.90;;;;;;;;;;6183506;23;20080;-79
2022/06/01 06:21:35;;;;;;;7.10;3.33;;;;;;;;;;6157319;23;20005;-81
2022/06/01 06:24:43;;;;;;;7.28;4.18;;;;;;;;;;6184647;23;20005;-83
2022/06/01 06:27:44;;;;;;;5.65;4.10;;;;;;;;;;6171995;23;20005;-86
2022/06/01 06:30:11;;;;;;;7.68;3.97;;;;;;;;;;6184104;23;20005;-84
2022/06/01 06:32:37;;;;;;;8.55;5.30;;;;;;;;;;6184256;23;19997;-82
2022/06/01 06:35:03;;;;;;;7.47;4.72;;;;;;;;;;6157974;23;20055;-82
2022/06/01 06:37:37;;;;;;;6.78;3.90;;;;;;;;;;6158124;23;20036;-84
2022/06/01 06:40:03;;;;;;;13.25;11.88;;;;;;;;;;6183760;23;20004;-81
2022/06/01 06:42:30;;;;;;;9.20;7.22;;;;;;;;;;6181913;23;20051;-81
2022/06/01 06:44:56;;;;;;;5.75;4.93;;;;;;;;;;6184813;23;20076;-83
2022/06/01 06:47:28;;;;;;;14.60;11.82;;;;;;;;;;6182299;23;20079;-82
2022/06/01 06:50:14;;;;;;;11.00;8.25;;;;;;;;;;6169575;23;20466;-82
2022/06/01 06:53:19;;;;;;;;;;;;;;;;;;;;;
2022/06/01 06:55:46;;;;;;;7.75;4.28;;;;;;;;;;6146593;23;20108;-84
2022/06/01 06:58:30;;;;;;;7.32;4.65;;;;;;;;;;6179124;23;20459;-89
2022/06/01 07:00:58;;;;;;;5.35;4.68;;;;;;;;;;6183887;23;20001;-85
2022/06/01 07:03:45;;;;;;;5.78;4.22;;;;;;;;;;6184445;23;20008;-84
2022/06/01 07:06:17;;;;;;;7.45;4.00;;;;;;;;;;6180864;23;20012;-85
2022/06/01 07:09:03;;;;;;;;;;;;;;;;;;;;;
2022/06/01 07:11:37;;;;;;;5.75;3.42;;;;;;;;;;6184531;23;20088;-84
2022/06/01 07:14:25;;;;;;;8.25;3.83;;;;;;;;;;6184864;23;20032;-83
2022/06/01 07:16:53;;;;;;;4.88;3.70;;;;;;;;;;6184278;23;20441;-85
2022/06/01 07:19:22;;;;;;;17.55;13.40;;;;;;;;;;6185723;23;20005;-84
2022/06/01 07:21:48;;;;;;;11.25;9.75;;;;;;;;;;6158602;23;20016;-81
2022/06/01 07:24:34;;;;;;;14.20;10.23;;;;;;;;;;6184316;23;20005;-85
2022/06/01 07:27:20;;;;;;;23.65;21.25;;;;;;;;;;6157879;23;20077;-87
2022/06/01 07:29:46;;;;;;;9.55;7.57;;;;;;;;;;6185877;23;20088;-87
2022/06/01 07:32:12;;;;;;;9.25;4.97;;;;;;;;;;6183345;23;20029;-87
2022/06/01 07:35:03;;;;;;;7.95;4.93;;;;;;;;;;6184221;23;20005;-87
2022/06/01 07:43:20;;;;;;;4.68;4.15;;;;;;;;;;6183570;23;20051;-86
2022/06/01 07:45:47;;;;;;;6.60;4.82;;;;;;;;;;6181992;23;20033;-84
2022/06/01 07:48:13;;;;;;;7.35;5.05;;;;;;;;;;6182996;23;20001;-85
2022/06/01 07:50:40;;;;;;;8.32;4.47;;;;;;;;;;6184006;23;20071;-87
2022/06/01 07:53:10;;;;;;;6.75;4.47;;;;;;;;;;6183025;23;20009;-85
2022/06/01 07:55:37;;;;;;;8.45;5.43;;;;;;;;;;6181759;23;20009;-83
2022/06/01 07:58:03;;;;;;;13.25;5.53;;;;;;;;;;6182839;23;20023;-82
2022/06/01 08:00:30;;;;;;;7.88;5.50;;;;;;;;;;6183840;23;20060;-83
2022/06/01 08:02:59;;;;;;;11.52;5.25;;;;;;;;;;6185732;23;20012;-86
2022/06/01 08:05:38;;;;;;;;;;;;;;;;;;;;;
2022/06/01 08:08:28;;;;;;;7.05;4.35;;;;;;;;;;6185448;23;20484;-87
2022/06/01 08:10:59;;;;;;;7.72;5.03;;;;;;;;;;6184153;23;20335;-83
2022/06/01 08:16:31;;;;;;;8.57;5.07;;;;;;;;;;6174572;23;20500;-83
2022/06/01 08:19:00;;;;;;;7.03;5.05;;;;;;;;;;6185488;23;20008;-83
2022/06/01 08:21:26;;;;;;;9.32;6.00;;;;;;;;;;6185105;23;20404;-81
2022/06/01 08:24:01;;;;;;;7.72;4.97;;;;;;;;;;6184459;23;20001;-86
2022/06/01 08:26:30;;;;;;;8.45;5.15;;;;;;;;;;6184583;23;20009;-85
2022/06/01 08:28:57;;;;;;;9.75;4.97;;;;;;;;;;6185395;23;20080;-80
2022/06/01 08:31:27;;;;;;;7.50;5.35;;;;;;;;;;6185570;23;20037;-83
2022/06/01 08:33:55;;;;;;;5.43;4.70;;;;;;;;;;6183515;23;20080;-83
2022/06/01 08:36:24;;;;;;;8.50;5.00;;;;;;;;;;6186559;23;20084;-84
2022/06/01 08:38:50;;;;;;;8.05;5.05;;;;;;;;;;6184580;23;20032;-83
2022/06/01 08:41:18;;;;;;;5.57;4.43;;;;;;;;;;6184599;23;20037;-83
2022/06/01 08:43:50;;;;;;;6.45;4.50;;;;;;;;;;6184088;23;20005;-85
2022/06/01 08:46:17;;;;;;;5.55;4.35;;;;;;;;;;6182588;23;20033;-82
2022/06/01 08:48:47;;;;;;;8.00;5.15;;;;;;;;;;6183878;23;20021;-81
2022/06/01 08:51:13;;;;;;;10.27;4.72;;;;;;;;;;6184704;23;20017;-82
2022/06/01 08:53:39;;;;;;;10.10;5.80;;;;;;;;;;6183632;23;20036;-82
2022/06/01 08:56:11;;;;;;;9.30;5.13;;;;;;;;;;6184723;23;20012;-82
2022/06/01 08:58:43;;;;;;;7.72;5.28;;;;;;;;;;6184374;23;20001;-81
2022/06/01 09:01:12;;;;;;;5.78;4.07;;;;;;;;;;6183899;23;20013;-82
2022/06/01 09:03:47;;;;;;;7.20;4.38;;;;;;;;;;6182519;23;20021;-82
2022/06/01 09:06:20;;;;;;;8.77;5.15;;;;;;;;;;6184893;23;20428;-80
2022/06/01 09:08:52;;;;;;;7.15;4.38;;;;;;;;;;6184479;23;20017;-81
2022/06/01 09:11:21;;;;;;;6.78;5.30;;;;;;;;;;6183252;23;19997;-84
2022/06/01 09:14:05;;;;;;;7.53;5.72;;;;;;;;;;6182730;23;20068;-85
2022/06/01 09:16:31;;;;;;;5.93;4.60;;;;;;;;;;6184981;23;20005;-85
2022/06/01 09:18:58;;;;;;;6.88;5.28;;;;;;;;;;6184163;23;20001;-83
2022/06/01 09:24:09;;;;;;;7.60;4.30;;;;;;;;;;6184740;23;20105;-84
2022/06/01 09:26:35;;;;;;;7.35;5.07;;;;;;;;;;6182653;23;20312;-81
2022/06/01 09:29:03;;;;;;;6.13;4.63;;;;;;;;;;6184301;23;20076;-84
2022/06/01 09:31:35;;;;;;;9.02;4.47;;;;;;;;;;6157735;23;20325;-81
2022/06/01 09:34:20;;;;;;;8.90;4.78;;;;;;;;;;6184441;23;20079;-81
2022/06/01 09:36:54;;;;;;;7.47;4.43;;;;;;;;;;6184335;23;20033;-83
2022/06/01 09:39:20;;;;;;;7.73;6.07;;;;;;;;;;6184385;23;20036;-86
2022/06/01 09:41:49;;;;;;;6.20;4.72;;;;;;;;;;6183450;23;20219;-84
2022/06/01 09:44:18;;;;;;;13.68;12.00;;;;;;;;;;6184070;23;20004;-85
2022/06/01 09:46:47;;;;;;;8.93;6.25;;;;;;;;;;6182486;23;20084;-87
2022/06/01 09:49:34;;;;;;;12.40;7.03;;;;;;;;;;6181841;23;20024;-86
2022/06/01 09:52:12;;;;;;;6.97;4.65;;;;;;;;;;6182037;23;20025;-84
2022/06/01 09:54:42;;;;;;;10.20;5.05;;;;;;;;;;6183417;23;20008;-81
2022/06/01 09:57:27;;;;;;;9.02;4.82;;;;;;;;;;6183488;23;20444;-83
2022/06/01 10:08:24;;;;;;;8.93;6.95;;;;;;;;;;6183690;23;20528;-80
2022/06/01 10:11:09;;;;;;;8.25;4.70;;;;;;;;;;6185448;23;20025;-82
2022/06/01 10:13:49;;;;;;;10.07;4.60;;;;;;;;;;6183291;23;20424;-82
2022/06/01 10:16:30;;;;;;;8.32;5.13;;;;;;;;;;6183977;23;20060;-81
2022/06/01 10:18:57;;;;;;;6.72;5.25;;;;;;;;;;6181524;23;20023;-83
2022/06/01 10:27:23;;;;;;;8.50;7.65;;;;;;;;;;6172316;23;20017;-84
2022/06/01 10:33:25;;;;;;;6.38;4.25;;;;;;;;;;6173330;23;20092;-88
2022/06/01 10:36:06;;;;;;;;;;;;;;;;;;;;;
2022/06/01 10:38:41;;;;;;;14.13;6.47;;;;;;;;;;6183609;23;20085;-85
2022/06/01 10:41:10;;;;;;;8.23;5.50;;;;;;;;;;6182168;23;20032;-84
2022/06/01 10:43:55;;;;;;;6.53;4.03;;;;;;;;;;6184277;23;20009;-80
2022/06/01 10:46:26;;;;;;;7.93;4.10;;;;;;;;;;6183944;23;20001;-85
2022/06/01 10:49:02;;;;;;;8.52;4.05;;;;;;;;;;6180731;23;20021;-84
2022/06/01 10:51:32;;;;;;;7.38;3.40;;;;;;;;;;6184051;23;20362;-83
2022/06/01 10:54:03;;;;;;;11.90;5.22;;;;;;;;;;6183224;23;20012;-82
2022/06/01 10:56:35;;;;;;;5.25;3.92;;;;;;;;;;6184907;23;20017;-82
2022/06/01 10:59:08;;;;;;;6.45;4.18;;;;;;;;;;6183698;23;20072;-81
2022/06/01 11:01:42;;;;;;;10.30;4.83;;;;;;;;;;6184499;23;20068;-82
2022/06/01 11:04:35;;;;;;;7.70;4.72;;;;;;;;;;6182824;23;20084;-84
2022/06/01 11:07:22;;;;;;;8.35;3.45;;;;;;;;;;6182447;23;20031;-85
2022/06/01 11:10:07;;;;;;;8.20;4.38;;;;;;;;;;6183618;23;20015;-83
2022/06/01 11:12:42;;;;;;;9.25;4.25;;;;;;;;;;6182889;23;20009;-84
2022/06/01 11:18:36;;;;;;;6.93;3.38;;;;;;;;;;6182061;23;20019;-86
2022/06/01 11:24:16;;;;;;;8.30;4.15;;;;;;;;;;6122205;23;20009;-83
2022/06/01 11:26:49;;;;;;;10.80;3.88;;;;;;;;;;6183562;23;20013;-82
2022/06/01 11:29:34;;;;;;;6.88;3.13;;;;;;;;;;6184268;23;20013;-82
2022/06/01 11:32:04;;;;;;;5.32;3.03;;;;;;;;;;6183409;23;20390;-86
2022/06/01 11:34:36;;;;;;;6.75;2.90;;;;;;;;;;6183346;23;20060;-84
2022/06/01 11:37:08;;;;;;;9.00;2.97;;;;;;;;;;6184069;23;20067;-84
2022/06/01 11:39:42;;;;;;;7.05;2.47;;;;;;;;;;6186341;23;19998;-85
2022/06/01 11:42:25;;;;;;;11.05;6.68;;;;;;;;;;6186553;23;19997;-82
2022/06/01 11:45:10;;;;;;;9.50;2.50;;;;;;;;;;6186655;23;20001;-85
2022/06/01 11:47:46;;;;;;;6.95;2.35;;;;;;;;;;6186843;23;20015;-81
2022/06/01 11:50:18;;;;;;;10.50;4.25;;;;;;;;;;6183123;23;20088;-83
2022/06/01 11:53:14;;;;;;;9.93;5.60;;;;;;;;;;6186833;23;20005;-83
2022/06/01 11:55:49;;;;;;;8.13;2.85;;;;;;;;;;6160344;23;20005;-84
2022/06/01 11:58:23;;;;;;;5.65;2.40;;;;;;;;;;6186782;23;20425;-82
2022/06/01 12:00:57;;;;;;;8.35;2.72;;;;;;;;;;6187645;23;20000;-86
2022/06/01 12:03:26;;;;;;;;;;;;;;;;;;6185930;23;20012;-84
2022/06/01 12:06:01;;;;;;;8.23;2.58;;;;;;;;;;6185002;23;19900;-82
2022/06/01 12:08:32;;;;;;;8.07;2.78;;;;;;;;;;6185521;23;20016;-84
2022/06/01 12:11:28;;;;;;;8.80;3.10;;;;;;;;;;6184156;23;20428;-85
2022/06/01 12:13:57;;;;;;;8.77;3.67;;;;;;;;;;6186043;23;20445;-81
2022/06/01 12:16:27;;;;;;;12.75;2.40;;;;;;;;;;6182856;23;20005;-82
2022/06/01 12:18:54;;;;;;;8.32;2.63;;;;;;;;;;6185160;23;20302;-80
2022/06/01 12:21:32;;;;;;;9.05;2.92;;;;;;;;;;6186091;23;20499;-85
2022/06/01 12:29:56;;;;;;;11.85;3.17;;;;;;;;;;6185544;23;20519;-81
2022/06/01 12:32:22;;;;;;;10.52;2.72;;;;;;;;;;6158341;23;20016;-83
2022/06/01 12:34:56;;;;;;;10.80;2.67;;;;;;;;;;6185364;23;20008;-81
2022/06/01 12:37:22;;;;;;;;;;;;;;;;;;6185407;23;20378;-81
2022/06/01 12:39:51;;;;;;;11.35;3.45;;;;;;;;;;6184126;23;19907;-82
2022/06/01 12:42:27;;;;;;;16.67;8.18;;;;;;;;;;6185257;23;20005;-82
2022/06/01 12:44:55;;;;;;;10.88;3.53;;;;;;;;;;6185616;23;20012;-81
2022/06/01 12:47:23;;;;;;;10.60;3.78;;;;;;;;;;6184115;23;20085;-81
2022/06/01 12:49:49;;;;;;;11.00;2.92;;;;;;;;;;6184798;23;20348;-82
2022/06/01 12:52:19;;;;;;;8.45;2.10;;;;;;;;;;6183575;23;20019;-82
2022/06/01 12:54:52;;;;;;;10.30;2.30;;;;;;;;;;6182865;23;20325;-82
2022/06/01 12:57:37;;;;;;;10.07;2.33;;;;;;;;;;6187208;23;20012;-83
2022/06/01 13:00:12;;;;;;;18.27;10.68;;;;;;;;;;6184450;23;20001;-83
2022/06/01 13:02:39;;;;;;;12.38;3.65;;;;;;;;;;6186122;23;20011;-82
2022/06/01 13:05:07;;;;;;;8.60;2.58;;;;;;;;;;6185326;23;20016;-83
2022/06/01 13:07:39;;;;;;;17.48;3.47;;;;;;;;;;6186851;23;20139;-81
2022/06/01 13:10:08;;;;;;;10.10;3.10;;;;;;;;;;6185334;23;20041;-82
2022/06/01 13:12:35;;;;;;;11.30;3.20;;;;;;;;;;6184321;23;20017;-83
2022/06/01 13:15:08;;;;;;;17.25;3.65;;;;;;;;;;6185507;23;20005;-82
2022/06/01 13:17:35;;;;;;;8.27;1.98;;;;;;;;;;6184823;23;20068;-80
2022/06/01 13:20:04;;;;;;;36.90;25.25;;;;;;;;;;6184198;23;20382;-82
2022/06/01 13:22:41;;;;;;;12.73;2.28;;;;;;;;;;6158731;23;20005;-83
2022/06/01 13:25:11;;;;;;;11.25;2.80;;;;;;;;;;6183338;23;20012;-81
2022/06/01 13:27:38;;;;;;;9.85;1.90;;;;;;;;;;6185278;23;20095;-82
2022/06/01 13:30:15;;;;;;;11.25;2.83;;;;;;;;;;6185066;23;20012;-81
2022/06/01 13:32:42;;;;;;;13.40;3.17;;;;;;;;;;6184793;23;20512;-83
2022/06/01 13:35:28;;;;;;;11.88;2.53;;;;;;;;;;6182557;23;20009;-86
2022/06/01 13:37:56;;;;;;;10.40;2.90;;;;;;;;;;6184211;23;20440;-80
2022/06/01 13:40:27;;;;;;;11.05;2.78;;;;;;;;;;6183866;23;20008;-83
2022/06/01 13:43:09;;;;;;;8.95;2.30;;;;;;;;;;6182661;23;20009;-84
2022/06/01 13:45:53;;;;;;;6.88;2.28;;;;;;;;;;6185776;23;20001;-83
2022/06/01 13:48:38;;;;;;;8.73;2.30;;;;;;;;;;6182724;23;20013;-83
2022/06/01 13:51:11;;;;;;;10.27;2.85;;;;;;;;;;6184920;23;20017;-82
2022/06/01 13:54:00;;;;;;;14.00;2.92;;;;;;;;;;6184042;23;20001;-84
2022/06/01 13:56:45;;;;;;;7.88;2.10;;;;;;;;;;6174139;23;20005;-81
2022/06/01 13:59:12;;;;;;;13.00;5.65;;;;;;;;;;6185476;23;20001;-83
2022/06/01 14:01:44;;;;;;;24.85;15.90;;;;;;;;;;6186041;23;20480;-84
2022/06/01 14:04:20;;;;;;;16.10;8.70;;;;;;;;;;6184673;23;20005;-83
2022/06/01 14:06:51;;;;;;;13.05;4.00;;;;;;;;;;6185402;23;20037;-80
2022/06/01 14:09:25;;;;;;;10.43;2.13;;;;;;;;;;6184949;23;20016;-85
2022/06/01 14:11:51;;;;;;;10.32;2.35;;;;;;;;;;6183304;23;20374;-81
2022/06/01 14:14:19;;;;;;;14.73;6.93;;;;;;;;;;6185644;23;20008;-80
2022/06/01 14:16:51;;;;;;;6.60;2.90;;;;;;;;;;6185409;23;20004;-83
2022/06/01 14:19:20;;;;;;;7.55;2.15;;;;;;;;;;6185571;23;20492;-83
2022/06/01 14:21:51;;;;;;;10.55;2.53;;;;;;;;;;6185123;23;20009;-83
2022/06/01 14:24:24;;;;;;;10.20;2.33;;;;;;;;;;6184936;23;20005;-81
2022/06/01 14:29:42;;;;;;;9.70;1.90;;;;;;;;;;6184313;23;20052;-80
2022/06/01 14:32:09;;;;;;;9.80;2.20;;;;;;;;;;6184342;23;20009;-83
2022/06/01 14:34:35;;;;;;;11.88;3.72;;;;;;;;;;6184136;23;20028;-81
2022/06/01 14:37:01;;;;;;;8.50;2.13;;;;;;;;;;6184830;23;20059;-82
2022/06/01 14:39:28;;;;;;;7.50;1.92;;;;;;;;;;6184136;23;20313;-79
2022/06/01 14:41:54;;;;;;;5.65;1.70;;;;;;;;;;6184519;23;20001;-80
2022/06/01 14:44:23;;;;;;;6.65;2.15;;;;;;;;;;6182405;23;20392;-82
2022/06/01 14:46:50;;;;;;;9.20;2.30;;;;;;;;;;6184621;23;20491;-81
2022/06/01 14:49:17;;;;;;;7.47;1.58;;;;;;;;;;6184119;23;20417;-79
2022/06/01 14:51:48;;;;;;;11.75;2.92;;;;;;;;;;6182601;23;20024;-79
2022/06/01 14:54:14;;;;;;;8.95;2.50;;;;;;;;;;6184051;23;20001;-81
2022/06/01 14:56:40;;;;;;;12.32;3.35;;;;;;;;;;6184161;23;20005;-79
2022/06/01 14:59:06;;;;;;;8.68;2.28;;;;;;;;;;6184312;23;20004;-80
2022/06/01 15:01:35;;;;;;;8.73;3.30;;;;;;;;;;6184110;23;20008;-81
2022/06/01 15:04:01;;;;;;;9.30;3.05;;;;;;;;;;6184532;23;20001;-82
2022/06/01 15:06:28;;;;;;;10.00;2.22;;;;;;;;;;6184218;23;20063;-84
2022/06/01 15:08:54;;;;;;;11.05;2.35;;;;;;;;;;6184309;23;20009;-82
2022/06/01 15:11:20;;;;;;;9.23;2.20;;;;;;;;;;6184982;23;20009;-82
2022/06/01 15:13:46;;;;;;;9.15;3.03;;;;;;;;;;6186709;23;20036;-82
2022/06/01 15:16:12;;;;;;;7.72;2.30;;;;;;;;;;6188565;23;20487;-82
2022/06/01 15:18:42;;;;;;;6.63;2.78;;;;;;;;;;6186032;23;20428;-80
2022/06/01 15:21:08;;;;;;;16.45;3.13;;;;;;;;;;6186211;23;20459;-81
2022/06/01 15:23:34;;;;;;;8.70;2.42;;;;;;;;;;6182303;23;20024;-82
2022/06/01 15:26:01;;;;;;;7.63;1.95;;;;;;;;;;6185164;23;20336;-84
2022/06/01 15:28:27;;;;;;;7.70;2.33;;;;;;;;;;6186258;23;20040;-82
2022/06/01 15:42:01;;;;;;;11.07;3.22;;;;;;;;;;6187223;23;20068;-84
2022/06/01 15:44:27;;;;;;;7.70;2.53;;;;;;;;;;6186670;23;19997;-83
2022/06/01 15:46:56;;;;;;;10.40;2.60;;;;;;;;;;6187017;23;20005;-83
2022/06/01 15:49:23;;;;;;;7.82;2.72;;;;;;;;;;6187410;23;20040;-83
2022/06/01 15:51:58;;;;;;;12.13;3.03;;;;;;;;;;6159628;23;20020;-82
2022/06/01 15:54:25;;;;;;;8.30;2.75;;;;;;;;;;6186344;23;20007;-81
2022/06/01 15:56:51;;;;;;;12.60;3.05;;;;;;;;;;6185802;23;20072;-82
2022/06/01 15:59:17;;;;;;;11.80;4.20;;;;;;;;;;6185654;23;20008;-82
2022/06/01 16:01:44;;;;;;;11.07;2.97;;;;;;;;;;6185581;23;20033;-82
2022/06/01 16:04:10;;;;;;;10.20;2.63;;;;;;;;;;6185805;23;20425;-82
2022/06/01 16:06:37;;;;;;;7.38;2.85;;;;;;;;;;6185852;23;20077;-83
2022/06/01 16:09:04;;;;;;;10.60;3.47;;;;;;;;;;6185597;23;20433;-82
2022/06/01 16:11:30;;;;;;;9.63;2.90;;;;;;;;;;6185837;23;20088;-82
2022/06/01 16:13:56;;;;;;;8.05;3.28;;;;;;;;;;6185934;23;20001;-83
2022/06/01 16:16:27;;;;;;;10.55;2.92;;;;;;;;;;6184536;23;20013;-82
2022/06/01 16:18:54;;;;;;;10.80;2.50;;;;;;;;;;6182287;23;20024;-83
2022/06/01 16:21:23;;;;;;;10.02;2.83;;;;;;;;;;6182804;23;20069;-82
2022/06/01 16:23:49;;;;;;;13.48;4.03;;;;;;;;;;6185698;23;20032;-79
2022/06/01 16:26:16;;;;;;;9.30;3.42;;;;;;;;;;6187678;23;20012;-82
2022/06/01 16:28:42;;;;;;;10.85;5.40;;;;;;;;;;6185799;23;20024;-82
2022/06/01 16:31:09;;;;;;;12.85;3.25;;;;;;;;;;6183866;23;20009;-82
2022/06/01 16:33:36;;;;;;;10.65;3.05;;;;;;;;;;6185797;23;20009;-82
2022/06/01 16:36:04;;;;;;;12.30;2.80;;;;;;;;;;6185265;23;20008;-81
2022/06/01 16:38:31;;;;;;;10.82;2.40;;;;;;;;;;6184273;23;20063;-83
2022/06/01 16:40:59;;;;;;;10.95;2.92;;;;;;;;;;6185572;23;20085;-83